createdAt,value
2023-03-31T00:00:01.249Z,9.80
2023-03-31T00:02:30.697Z,9.80
2023-03-31T00:04:59.884Z,9.80
2023-03-31T00:07:27.479Z,9.80
2023-03-31T00:10:07.142Z,9.80
2023-03-31T00:12:45.934Z,9.80
2023-03-31T00:15:12.782Z,9.80
2023-03-31T00:17:40.005Z,9.80
2023-03-31T00:20:12.477Z,9.80
2023-03-31T00:22:42.647Z,9.80
2023-03-31T00:25:11.336Z,9.90
2023-03-31T00:27:38.455Z,9.80
2023-03-31T00:30:05.449Z,9.90
2023-03-31T00:32:33.560Z,9.80
2023-03-31T00:35:03.396Z,9.80
2023-03-31T00:37:30.442Z,9.80
2023-03-31T00:39:57.119Z,9.70
2023-03-31T00:42:25.070Z,9.70
2023-03-31T00:45:10.205Z,9.70
2023-03-31T00:47:36.965Z,9.60
2023-03-31T00:50:04.217Z,9.60
2023-03-31T00:52:33.190Z,9.50
2023-03-31T00:55:01.722Z,9.50
2023-03-31T00:57:29.285Z,9.50
2023-03-31T00:59:57.621Z,9.50
2023-03-31T01:02:27.457Z,9.50
2023-03-31T01:04:57.406Z,9.40
2023-03-31T01:07:25.860Z,9.40
2023-03-31T01:09:55.224Z,9.40
2023-03-31T01:12:22.626Z,9.50
2023-03-31T01:14:50.947Z,9.50
2023-03-31T01:17:19.076Z,9.60
2023-03-31T01:19:52.766Z,9.60
2023-03-31T01:22:23.430Z,9.60
2023-03-31T01:25:01.517Z,9.60
2023-03-31T01:27:31.196Z,9.70
2023-03-31T01:30:10.622Z,9.70
2023-03-31T01:32:53.276Z,9.70
2023-03-31T01:35:35.976Z,9.60
2023-03-31T01:38:10.763Z,9.60
2023-03-31T01:40:46.742Z,9.60
2023-03-31T01:43:13.933Z,9.60
2023-03-31T01:45:47.137Z,9.50
2023-03-31T01:48:35.035Z,9.50
2023-03-31T01:51:02.520Z,9.50
2023-03-31T01:53:44.901Z,9.40
2023-03-31T01:56:35.220Z,9.40
2023-03-31T01:59:01.979Z,9.30
2023-03-31T02:01:37.491Z,9.30
2023-03-31T02:04:19.623Z,9.20
2023-03-31T02:06:47.784Z,9.20
2023-03-31T02:09:19.413Z,9.10
2023-03-31T02:11:46.055Z,9.10
2023-03-31T02:14:13.379Z,9.10
2023-03-31T02:16:42.033Z,9.10
2023-03-31T02:19:09.395Z,9.00
2023-03-31T02:21:36.985Z,9.00
2023-03-31T02:24:05.009Z,9.00
2023-03-31T02:26:32.674Z,9.00
2023-03-31T02:28:59.463Z,9.00
2023-03-31T02:31:31.063Z,8.90
2023-03-31T02:33:57.745Z,9.00
2023-03-31T02:36:24.898Z,8.90
2023-03-31T02:38:59.316Z,8.90
2023-03-31T02:41:28.262Z,9.00
2023-03-31T02:43:55.387Z,9.00
2023-03-31T02:46:22.400Z,9.00
2023-03-31T02:48:49.894Z,9.00
2023-03-31T02:51:16.886Z,8.90
2023-03-31T02:53:43.698Z,9.00
2023-03-31T02:56:29.127Z,8.90
2023-03-31T02:59:05.054Z,9.00
2023-03-31T03:01:36.707Z,9.00
2023-03-31T03:04:09.730Z,8.90
2023-03-31T03:06:57.574Z,9.00
2023-03-31T03:09:40.635Z,9.00
2023-03-31T03:12:07.412Z,9.00
2023-03-31T03:14:43.002Z,9.00
2023-03-31T03:17:12.030Z,9.00
2023-03-31T03:19:38.700Z,8.90
2023-03-31T03:22:07.336Z,8.90
2023-03-31T03:24:35.823Z,8.80
2023-03-31T03:27:02.632Z,8.70
2023-03-31T03:29:29.978Z,8.70
2023-03-31T03:31:56.769Z,8.70
2023-03-31T03:34:25.742Z,8.60
2023-03-31T03:36:52.410Z,8.50
2023-03-31T03:39:19.280Z,8.50
2023-03-31T03:41:46.871Z,8.40
2023-03-31T03:44:14.246Z,8.30
2023-03-31T03:46:42.327Z,8.20
2023-03-31T03:49:09.124Z,8.30
2023-03-31T03:51:37.514Z,8.10
2023-03-31T03:54:04.264Z,8.00
2023-03-31T03:56:31.576Z,8.00
2023-03-31T03:58:58.232Z,7.90
2023-03-31T04:01:25.380Z,7.90
2023-03-31T04:04:03.852Z,7.80
2023-03-31T04:06:34.694Z,7.70
2023-03-31T04:09:02.145Z,7.70
2023-03-31T04:11:30.047Z,7.70
2023-03-31T04:13:56.743Z,7.60
2023-03-31T04:16:25.569Z,7.60
2023-03-31T04:18:55.102Z,7.50
2023-03-31T04:21:24.526Z,7.50
2023-03-31T04:23:59.127Z,7.50
2023-03-31T04:26:44.764Z,7.40
2023-03-31T04:29:13.352Z,7.40
2023-03-31T04:31:47.271Z,7.30
2023-03-31T04:34:36.897Z,7.30
2023-03-31T04:37:05.146Z,7.30
2023-03-31T04:39:33.958Z,7.20
2023-03-31T04:44:46.159Z,7.20
2023-03-31T04:47:15.084Z,7.10
2023-03-31T04:49:42.591Z,7.00
2023-03-31T04:52:09.962Z,7.10
2023-03-31T04:54:36.746Z,7.20
2023-03-31T04:57:03.505Z,7.30
2023-03-31T04:59:30.920Z,7.40
2023-03-31T05:01:58.375Z,7.50
2023-03-31T05:04:33.506Z,7.60
2023-03-31T05:07:06.981Z,7.80
2023-03-31T05:09:35.784Z,7.80
2023-03-31T05:12:02.761Z,8.00
2023-03-31T05:14:30.751Z,8.20
2023-03-31T05:17:27.398Z,8.60
2023-03-31T05:19:54.873Z,8.90
2023-03-31T05:22:21.866Z,9.30
2023-03-31T05:24:48.800Z,9.70
2023-03-31T05:27:16.402Z,10.10
2023-03-31T05:29:46.467Z,10.50
2023-03-31T05:32:16.615Z,10.80
2023-03-31T05:34:43.442Z,11.00
2023-03-31T05:37:11.672Z,11.20
2023-03-31T05:39:43.389Z,11.30
2023-03-31T05:42:10.697Z,11.40
2023-03-31T05:44:43.672Z,11.70
2023-03-31T05:47:12.110Z,11.90
2023-03-31T05:49:40.813Z,12.30
2023-03-31T05:52:08.041Z,12.50
2023-03-31T05:54:36.654Z,12.60
2023-03-31T05:57:05.209Z,12.90
2023-03-31T05:59:36.634Z,13.20
2023-03-31T06:02:04.631Z,13.30
2023-03-31T06:04:44.759Z,13.20
2023-03-31T06:07:14.916Z,13.00
2023-03-31T06:09:43.304Z,12.90
2023-03-31T06:12:10.155Z,13.00
2023-03-31T06:14:37.440Z,13.40
2023-03-31T06:17:04.708Z,13.80
2023-03-31T06:19:31.861Z,14.50
2023-03-31T06:21:59.126Z,15.10
2023-03-31T06:24:26.958Z,15.50
2023-03-31T06:26:54.149Z,16.00
2023-03-31T06:29:23.384Z,16.50
2023-03-31T06:32:04.698Z,16.70
2023-03-31T06:34:31.785Z,16.90
2023-03-31T06:36:58.647Z,16.90
2023-03-31T06:39:27.663Z,17.00
2023-03-31T06:41:57.450Z,17.00
2023-03-31T06:44:26.900Z,17.20
2023-03-31T06:46:54.605Z,17.30
2023-03-31T06:49:22.926Z,17.30
2023-03-31T06:51:50.194Z,17.30
2023-03-31T06:54:17.548Z,17.10
2023-03-31T06:56:46.414Z,17.00
2023-03-31T06:59:23.613Z,16.80
2023-03-31T07:01:53.809Z,16.60
2023-03-31T07:04:34.986Z,16.40
2023-03-31T07:07:01.976Z,16.30
2023-03-31T07:09:28.954Z,16.20
2023-03-31T07:11:56.861Z,16.60
2023-03-31T07:14:23.845Z,17.30
2023-03-31T07:16:53.467Z,18.10
2023-03-31T07:19:21.570Z,18.50
2023-03-31T07:21:48.334Z,18.80
2023-03-31T07:24:16.277Z,18.50
2023-03-31T07:26:43.524Z,18.40
2023-03-31T07:29:11.765Z,18.30
2023-03-31T07:31:38.968Z,18.10
2023-03-31T07:34:06.505Z,17.90
2023-03-31T07:36:33.371Z,17.70
2023-03-31T07:39:01.858Z,17.50
2023-03-31T07:41:33.899Z,17.30
2023-03-31T07:44:01.787Z,17.20
2023-03-31T07:46:28.535Z,17.10
2023-03-31T07:48:57.616Z,17.00
2023-03-31T07:51:25.767Z,16.90
2023-03-31T07:53:53.874Z,16.70
2023-03-31T07:56:22.353Z,16.70
2023-03-31T07:58:49.193Z,16.70
2023-03-31T08:01:19.668Z,16.80
2023-03-31T08:03:48.929Z,16.80
2023-03-31T08:06:22.006Z,16.90
2023-03-31T08:08:51.853Z,17.10
2023-03-31T08:11:19.131Z,17.00
2023-03-31T08:13:45.883Z,17.10
2023-03-31T08:16:26.759Z,17.00
2023-03-31T08:18:54.346Z,17.00
2023-03-31T08:21:24.373Z,16.90
2023-03-31T08:23:53.550Z,16.80
2023-03-31T08:26:22.119Z,16.80
2023-03-31T08:28:49.381Z,16.70
2023-03-31T08:31:18.731Z,16.50
2023-03-31T08:33:46.058Z,16.40
2023-03-31T08:36:13.145Z,16.30
2023-03-31T08:38:41.800Z,16.30
2023-03-31T08:41:30.812Z,16.10
2023-03-31T08:43:57.566Z,16.10
2023-03-31T08:46:24.542Z,16.00
2023-03-31T08:48:54.225Z,16.00
2023-03-31T08:51:28.393Z,16.00
2023-03-31T08:53:59.279Z,16.10
2023-03-31T08:56:30.603Z,16.00
2023-03-31T08:59:02.809Z,16.10
2023-03-31T09:01:55.984Z,16.00
2023-03-31T09:04:32.664Z,16.00
2023-03-31T09:07:19.339Z,15.90
2023-03-31T09:09:49.423Z,15.90
2023-03-31T09:12:35.802Z,15.70
2023-03-31T09:15:05.834Z,15.90
2023-03-31T09:17:47.820Z,15.80
2023-03-31T09:20:19.581Z,15.70
2023-03-31T09:22:50.763Z,15.60
2023-03-31T09:25:24.175Z,15.50
2023-03-31T09:27:51.055Z,15.40
2023-03-31T09:30:20.639Z,15.40
2023-03-31T09:32:52.819Z,15.40
2023-03-31T09:35:22.898Z,15.40
2023-03-31T09:37:58.805Z,15.30
2023-03-31T09:40:26.243Z,15.40
2023-03-31T09:42:58.536Z,15.50
2023-03-31T09:45:26.577Z,15.50
2023-03-31T09:48:02.652Z,15.60
2023-03-31T09:50:30.474Z,15.70
2023-03-31T09:52:58.993Z,15.80
2023-03-31T09:55:39.132Z,15.90
2023-03-31T09:58:11.961Z,16.00
2023-03-31T10:00:39.662Z,16.00
2023-03-31T10:03:09.126Z,16.00
2023-03-31T10:05:45.652Z,16.00
2023-03-31T10:08:12.642Z,15.90
2023-03-31T10:10:44.530Z,16.00
2023-03-31T10:13:11.511Z,16.00
2023-03-31T10:15:42.366Z,15.90
2023-03-31T10:18:14.694Z,15.90
2023-03-31T10:20:43.926Z,16.00
2023-03-31T10:23:19.654Z,15.90
2023-03-31T10:25:48.473Z,15.90
2023-03-31T10:28:22.249Z,15.80
2023-03-31T10:30:52.953Z,15.80
2023-03-31T10:33:24.907Z,15.90
2023-03-31T10:35:56.270Z,16.00
2023-03-31T10:38:30.704Z,15.90
2023-03-31T10:41:00.447Z,15.90
2023-03-31T10:43:28.783Z,16.10
2023-03-31T10:46:00.301Z,16.20
2023-03-31T10:48:30.859Z,16.30
2023-03-31T10:51:07.261Z,16.40
2023-03-31T10:53:41.647Z,16.40
2023-03-31T10:56:26.680Z,16.50
2023-03-31T10:59:15.712Z,16.50
2023-03-31T11:01:43.359Z,16.40
2023-03-31T11:04:34.481Z,16.20
2023-03-31T11:07:05.524Z,16.10
2023-03-31T11:09:35.626Z,16.10
2023-03-31T11:12:05.611Z,16.10
2023-03-31T11:14:38.109Z,16.10
2023-03-31T11:17:07.867Z,16.10
2023-03-31T11:19:38.063Z,16.10
2023-03-31T11:22:26.688Z,16.10
2023-03-31T11:25:16.882Z,16.10
2023-03-31T11:27:56.780Z,16.10
2023-03-31T11:30:33.916Z,16.10
2023-03-31T11:33:15.819Z,16.20
2023-03-31T11:35:52.324Z,16.40
2023-03-31T11:38:28.311Z,16.50
2023-03-31T11:41:01.325Z,16.60
2023-03-31T11:43:28.072Z,16.80
2023-03-31T11:46:08.132Z,17.10
2023-03-31T11:48:43.089Z,17.30
2023-03-31T11:51:14.421Z,17.60
2023-03-31T11:53:42.431Z,17.80
2023-03-31T11:56:13.583Z,18.00
2023-03-31T11:59:01.025Z,18.10
2023-03-31T12:01:46.378Z,18.20
2023-03-31T12:04:33.973Z,18.40
2023-03-31T12:07:06.449Z,18.50
2023-03-31T12:09:52.103Z,18.60
2023-03-31T12:12:20.640Z,18.60
2023-03-31T12:15:01.870Z,18.40
2023-03-31T12:17:30.497Z,18.20
2023-03-31T12:20:10.517Z,18.10
2023-03-31T12:22:44.376Z,18.00
2023-03-31T12:25:15.559Z,18.00
2023-03-31T12:27:43.111Z,17.90
2023-03-31T12:30:16.319Z,17.70
2023-03-31T12:32:57.870Z,17.60
2023-03-31T12:35:51.081Z,17.50
2023-03-31T12:38:27.672Z,17.20
2023-03-31T12:41:21.549Z,17.10
2023-03-31T12:43:48.354Z,17.10
2023-03-31T12:46:18.313Z,17.10
2023-03-31T12:48:54.000Z,17.30
2023-03-31T12:51:22.737Z,17.50
2023-03-31T12:54:08.751Z,17.60
2023-03-31T12:56:56.803Z,17.90
2023-03-31T12:59:29.568Z,18.00
2023-03-31T13:02:11.860Z,18.00
2023-03-31T13:04:39.770Z,18.00
2023-03-31T13:07:35.007Z,17.90
2023-03-31T13:10:14.952Z,17.90
2023-03-31T13:12:44.058Z,17.90
2023-03-31T13:15:13.901Z,17.90
2023-03-31T13:17:42.069Z,18.00
2023-03-31T13:20:19.983Z,17.90
2023-03-31T13:22:49.052Z,18.00
2023-03-31T13:25:32.472Z,18.10
2023-03-31T13:28:06.829Z,18.10
2023-03-31T13:30:39.601Z,18.10
2023-03-31T13:33:28.242Z,18.10
2023-03-31T13:35:58.529Z,18.10
2023-03-31T13:38:48.979Z,18.20
2023-03-31T13:41:28.828Z,18.20
2023-03-31T13:44:02.066Z,18.10
2023-03-31T13:46:32.170Z,18.10
2023-03-31T13:48:59.179Z,18.20
2023-03-31T13:51:41.046Z,18.10
2023-03-31T13:54:13.729Z,18.10
2023-03-31T13:56:46.602Z,18.30
2023-03-31T13:59:18.219Z,18.30
2023-03-31T14:01:51.067Z,18.30
2023-03-31T14:04:36.484Z,18.40
2023-03-31T14:07:10.416Z,18.30
2023-03-31T14:09:37.704Z,18.30
2023-03-31T14:12:19.866Z,18.20
2023-03-31T14:14:46.714Z,18.10
2023-03-31T14:17:13.488Z,18.00
2023-03-31T14:20:12.921Z,17.90
2023-03-31T14:22:51.845Z,17.70
2023-03-31T14:25:21.496Z,17.60
2023-03-31T14:28:16.251Z,17.40
2023-03-31T14:30:47.332Z,17.30
2023-03-31T14:33:22.886Z,17.20
2023-03-31T14:35:59.813Z,17.10
2023-03-31T14:38:29.736Z,17.10
2023-03-31T14:41:02.408Z,16.90
2023-03-31T14:43:56.011Z,16.80
2023-03-31T14:46:22.889Z,16.80
2023-03-31T14:48:50.559Z,16.70
2023-03-31T14:51:28.789Z,16.70
2023-03-31T14:53:56.547Z,16.60
2023-03-31T15:10:13.783Z,16.30
2023-03-31T15:12:40.519Z,16.30
2023-03-31T15:15:08.547Z,16.30
2023-03-31T15:17:41.940Z,16.20
2023-03-31T15:20:21.313Z,16.20
2023-03-31T15:22:47.921Z,16.10
2023-03-31T15:25:14.791Z,16.10
2023-03-31T15:27:43.510Z,16.00
2023-03-31T15:30:14.758Z,15.70
2023-03-31T15:32:44.539Z,15.40
2023-03-31T15:35:32.087Z,15.00
2023-03-31T15:37:59.172Z,14.70
2023-03-31T15:40:27.658Z,14.20
2023-03-31T15:43:25.478Z,13.90
2023-03-31T15:45:55.143Z,13.60
2023-03-31T15:48:39.037Z,13.40
2023-03-31T15:51:11.299Z,13.20
2023-03-31T15:53:38.630Z,13.00
2023-03-31T15:56:09.395Z,12.90
2023-03-31T15:59:10.632Z,12.80
2023-03-31T16:01:42.977Z,12.60
2023-03-31T16:04:21.323Z,12.50
2023-03-31T16:09:42.886Z,12.40
2023-03-31T16:12:28.754Z,12.40
2023-03-31T16:17:59.295Z,12.30
2023-03-31T16:20:54.287Z,12.30
2023-03-31T16:23:36.476Z,12.30
2023-03-31T16:26:08.903Z,12.30
2023-03-31T16:31:35.996Z,12.30
2023-03-31T16:34:05.385Z,12.40
2023-03-31T16:36:34.440Z,12.40
2023-03-31T16:39:06.241Z,12.40
2023-03-31T16:41:33.191Z,12.40
2023-03-31T16:44:04.643Z,12.40
2023-03-31T16:46:32.160Z,12.40
2023-03-31T16:49:01.377Z,12.40
2023-03-31T16:51:30.822Z,12.40
2023-03-31T16:53:59.541Z,12.40
2023-03-31T16:56:27.246Z,12.50
2023-03-31T16:58:57.160Z,12.40
2023-03-31T17:01:26.083Z,12.30
2023-03-31T17:04:00.315Z,12.30
2023-03-31T17:09:11.962Z,12.20
2023-03-31T17:17:18.024Z,12.00
2023-03-31T17:36:55.911Z,11.90
2023-03-31T18:31:35.415Z,12.20
2023-03-31T18:36:51.123Z,12.20
2023-03-31T18:39:22.282Z,12.20
2023-03-31T19:03:53.318Z,12.00
2023-03-31T20:51:53.992Z,11.20
2023-03-31T20:54:20.735Z,11.20
2023-03-31T20:56:50.723Z,11.30
2023-03-31T20:59:19.657Z,11.20
2023-03-31T21:01:49.709Z,11.10
2023-03-31T21:04:28.968Z,11.10
2023-03-31T21:06:58.407Z,11.20
2023-03-31T21:09:26.888Z,11.10
2023-03-31T21:11:55.331Z,11.10
2023-03-31T21:14:23.908Z,11.10
2023-03-31T21:16:50.793Z,11.10
2023-03-31T21:19:20.468Z,11.00
2023-03-31T21:21:56.672Z,11.10
2023-03-31T21:24:25.911Z,11.10
2023-03-31T21:26:58.470Z,11.10
2023-03-31T21:29:31.325Z,11.00
2023-03-31T21:32:01.008Z,11.00
2023-03-31T21:37:12.246Z,11.00
2023-03-31T21:39:39.190Z,11.10
2023-03-31T21:42:10.956Z,11.20
2023-03-31T21:44:37.972Z,11.20
2023-03-31T21:47:12.086Z,11.30
2023-03-31T21:49:40.504Z,11.30
2023-03-31T21:52:07.972Z,11.40
2023-03-31T21:54:35.539Z,11.30
2023-03-31T21:57:03.375Z,11.40
2023-03-31T21:59:32.632Z,11.30
2023-03-31T22:02:04.107Z,11.40
2023-03-31T22:04:33.545Z,11.20
2023-03-31T22:07:00.770Z,11.20
2023-03-31T22:09:27.705Z,11.20
2023-03-31T22:11:54.513Z,11.10
2023-03-31T22:14:22.429Z,11.10
2023-03-31T22:16:50.133Z,11.10
2023-03-31T22:19:16.939Z,11.00
2023-03-31T22:21:44.024Z,11.00
2023-03-31T22:24:11.309Z,11.00
2023-03-31T22:26:39.403Z,10.90
2023-03-31T22:29:06.114Z,10.90
2023-03-31T22:31:32.879Z,10.90
2023-03-31T22:34:02.900Z,10.90
2023-03-31T22:36:29.702Z,10.90
2023-03-31T22:38:56.458Z,10.90
2023-03-31T22:41:23.527Z,10.90
2023-03-31T22:43:51.933Z,10.90
2023-03-31T22:46:18.702Z,10.90
2023-03-31T22:48:48.073Z,10.90
2023-03-31T22:51:15.841Z,10.90
2023-03-31T22:53:42.851Z,10.80
2023-03-31T22:56:10.802Z,10.80
2023-03-31T22:58:41.295Z,10.80
2023-03-31T23:01:10.157Z,10.80
2023-03-31T23:03:37.002Z,10.80
2023-03-31T23:06:05.497Z,10.80
2023-03-31T23:08:33.397Z,10.70
2023-03-31T23:11:02.051Z,10.70
2023-03-31T23:13:29.417Z,10.70
2023-03-31T23:16:00.648Z,10.60
2023-03-31T23:18:29.809Z,10.60
2023-03-31T23:20:56.799Z,10.60
2023-03-31T23:23:23.444Z,10.60
2023-03-31T23:25:50.611Z,10.60
2023-03-31T23:28:19.288Z,10.60
2023-03-31T23:30:54.302Z,10.60
2023-03-31T23:33:20.949Z,10.40
2023-03-31T23:35:50.491Z,10.50
2023-03-31T23:38:17.495Z,10.50
2023-03-31T23:40:46.399Z,10.50
2023-03-31T23:43:13.419Z,10.50
2023-03-31T23:45:40.819Z,10.50
2023-03-31T23:48:08.037Z,10.50
2023-03-31T23:50:34.980Z,10.40
2023-03-31T23:53:02.143Z,10.40
2023-03-31T23:55:29.080Z,10.40
2023-03-31T23:57:55.803Z,10.40
